Time;durP1;ratioP1;P1;durP2;ratioP2;P2;SDS_P1;SDS_P2;PMS_P1;PMS_P2;Temp;Humidity;BMP_temperature;BMP_pressure;BME280_temperature;BME280_humidity;BME280_pressure;Samples;Min_cycle;Max_cycle;Signal;HPM_P1;HPM_P2
2021/11/22 00:01:51;;;;;;;7.72;4.20;;;;;;;10.28;57.01;99745.73;1754613;80;21613;-66
2021/11/22 00:04:18;;;;;;;7.65;4.00;;;;;;;10.28;56.85;99751.48;1758845;79;21063;-68
2021/11/22 00:06:45;;;;;;;8.10;4.15;;;;;;;10.25;56.97;99742.05;1737864;80;21098;-68
2021/11/22 00:09:12;;;;;;;7.90;4.05;;;;;;;10.26;57.05;99758.68;1751281;80;21056;-69
2021/11/22 00:11:38;;;;;;;6.58;3.70;;;;;;;10.22;57.12;99757.63;1755751;80;21073;-69
2021/11/22 00:14:05;;;;;;;8.80;4.22;;;;;;;10.22;57.17;99751.06;1760287;79;21058;-67
2021/11/22 00:16:31;;;;;;;8.05;4.03;;;;;;;10.20;57.13;99755.63;1755745;79;21506;-67
2021/11/22 00:19:00;;;;;;;7.90;4.17;;;;;;;10.21;57.13;99760.39;1764629;80;21012;-70
2021/11/22 00:21:27;;;;;;;8.40;4.42;;;;;;;10.19;57.19;99759.70;1762181;80;21423;-68
2021/11/22 00:23:56;;;;;;;9.60;4.97;;;;;;;10.18;57.23;99760.16;1762276;79;21038;-68
2021/11/22 00:26:22;;;;;;;7.90;4.12;;;;;;;10.19;57.30;99767.59;1737337;80;21047;-70
2021/11/22 00:28:51;;;;;;;7.83;4.15;;;;;;;10.21;57.28;99770.91;1777031;80;21575;-69
2021/11/22 00:31:37;;;;;;;6.93;3.83;;;;;;;10.22;57.36;99768.15;1764008;80;21085;-67
2021/11/22 00:34:05;;;;;;;8.50;4.55;;;;;;;10.23;57.36;99766.34;1748655;80;21490;-68
2021/11/22 00:36:40;;;;;;;7.60;4.37;;;;;;;10.19;57.43;99760.52;1736803;79;21062;-69
2021/11/22 00:39:07;;;;;;;8.70;4.72;;;;;;;10.18;57.44;99759.34;1748926;80;21003;-68
2021/11/22 00:41:34;;;;;;;8.83;4.53;;;;;;;10.15;57.68;99764.37;1760610;79;21093;-68
2021/11/22 00:44:01;;;;;;;9.43;5.05;;;;;;;10.15;57.73;99767.50;1744010;80;21070;-68
2021/11/22 00:46:28;;;;;;;9.58;4.03;;;;;;;10.15;57.88;99763.55;1759060;79;21011;-68
2021/11/22 00:48:54;;;;;;;7.85;4.47;;;;;;;10.15;57.84;99769.63;1769227;80;21133;-68
2021/11/22 00:51:21;;;;;;;8.50;4.40;;;;;;;10.11;57.94;99768.75;1756773;80;21086;-68
2021/11/22 00:53:48;;;;;;;8.38;4.55;;;;;;;10.14;57.86;99775.05;1763296;79;21109;-71
2021/11/22 00:56:16;;;;;;;8.33;4.30;;;;;;;10.10;57.97;99775.78;1767632;79;21518;-66
2021/11/22 00:58:44;;;;;;;7.87;4.28;;;;;;;10.09;58.08;99774.63;1767637;79;21059;-68
2021/11/22 01:01:10;;;;;;;7.08;4.33;;;;;;;10.08;58.07;99772.95;1759623;79;21081;-68
2021/11/22 01:03:37;;;;;;;6.30;3.77;;;;;;;10.11;58.07;99780.08;1762411;80;21580;-67
2021/11/22 01:06:05;;;;;;;8.23;4.53;;;;;;;10.22;57.87;99778.66;1759876;79;21450;-68
2021/11/22 01:08:32;;;;;;;9.65;4.42;;;;;;;10.27;57.68;99783.52;1764053;80;21102;-69
2021/11/22 01:10:58;;;;;;;7.60;4.70;;;;;;;10.27;57.59;99789.25;1759280;80;21112;-68
2021/11/22 01:13:27;;;;;;;7.92;4.30;;;;;;;10.23;57.72;99782.94;1768611;80;21062;-69
2021/11/22 01:15:54;;;;;;;8.80;5.00;;;;;;;10.20;57.66;99787.17;1748082;80;21029;-67
2021/11/22 01:18:21;;;;;;;8.50;4.15;;;;;;;10.18;57.74;99785.14;1759304;80;21058;-68
2021/11/22 01:20:47;;;;;;;8.93;4.35;;;;;;;10.17;57.86;99777.39;1742126;79;21042;-68
2021/11/22 01:23:14;;;;;;;8.35;4.97;;;;;;;10.15;57.95;99778.84;1767394;80;21086;-67
2021/11/22 01:25:43;;;;;;;8.03;4.35;;;;;;;10.15;57.96;99780.15;1733006;80;21042;-68
2021/11/22 01:28:10;;;;;;;8.03;4.72;;;;;;;10.14;57.95;99785.08;1765895;80;21502;-69
2021/11/22 01:30:37;;;;;;;7.62;4.20;;;;;;;10.11;57.99;99781.89;1749139;79;21640;-67
2021/11/22 01:33:04;;;;;;;8.40;4.53;;;;;;;10.08;58.02;99790.04;1760098;79;21105;-68
2021/11/22 01:35:30;;;;;;;7.80;3.87;;;;;;;10.06;58.10;99784.91;1763806;80;21110;-66
2021/11/22 01:37:57;;;;;;;7.70;4.40;;;;;;;10.06;58.15;99786.72;1733678;80;21085;-69
2021/11/22 01:40:26;;;;;;;7.87;4.30;;;;;;;10.04;58.12;99792.11;1764881;79;21671;-69
2021/11/22 01:42:56;;;;;;;7.22;4.42;;;;;;;10.01;58.18;99792.38;1755090;80;21030;-68
2021/11/22 01:45:23;;;;;;;9.10;4.72;;;;;;;9.97;58.31;99792.27;1767428;80;21090;-67
2021/11/22 01:47:49;;;;;;;7.67;4.25;;;;;;;9.94;58.29;99787.31;1764042;80;21112;-67
2021/11/22 01:50:19;;;;;;;8.28;3.87;;;;;;;9.91;58.37;99785.77;1764434;79;21088;-68
2021/11/22 01:52:46;;;;;;;9.35;4.15;;;;;;;9.91;58.41;99786.25;1732064;79;21078;-67
2021/11/22 01:55:17;;;;;;;7.60;4.83;;;;;;;9.91;58.42;99798.08;1759938;79;21106;-67
2021/11/22 01:57:45;;;;;;;8.43;4.30;;;;;;;9.90;58.48;99792.46;1764939;80;21110;-67
2021/11/22 02:00:29;;;;;;;7.17;3.95;;;;;;;9.87;58.49;99787.01;1762176;79;21038;-67
2021/11/22 02:02:55;;;;;;;6.70;4.00;;;;;;;9.83;58.53;99786.45;1763136;80;21047;-67
2021/11/22 02:05:22;;;;;;;9.08;4.20;;;;;;;9.89;58.54;99793.45;1767892;80;21099;-68
2021/11/22 02:07:49;;;;;;;7.67;4.47;;;;;;;9.97;58.33;99793.13;1765359;80;21086;-67
2021/11/22 02:10:19;;;;;;;7.75;3.65;;;;;;;9.98;58.16;99796.08;1770439;80;21065;-67
2021/11/22 02:12:46;;;;;;;8.90;4.78;;;;;;;9.96;58.21;99796.70;1766986;79;21050;-67
2021/11/22 02:15:13;;;;;;;9.48;4.78;;;;;;;9.93;58.27;99797.45;1760467;79;21059;-68
2021/11/22 02:17:43;;;;;;;8.78;4.12;;;;;;;9.90;58.33;99799.89;1738201;79;21078;-67
2021/11/22 02:20:13;;;;;;;8.30;4.53;;;;;;;9.86;58.38;99803.23;1769350;80;21065;-66
2021/11/22 02:22:39;;;;;;;8.38;3.80;;;;;;;9.80;58.47;99803.78;1742163;80;21041;-67
2021/11/22 02:25:08;;;;;;;8.85;3.90;;;;;;;9.75;58.58;99803.35;1749976;80;20995;-66
2021/11/22 02:27:36;;;;;;;7.78;3.87;;;;;;;9.72;58.65;99804.92;1743105;80;21098;-67
2021/11/22 02:30:05;;;;;;;7.87;3.98;;;;;;;9.70;58.75;99802.91;1748405;81;20999;-69
2021/11/22 02:32:32;;;;;;;10.03;4.17;;;;;;;9.69;58.76;99802.55;1736668;81;21624;-67
2021/11/22 02:34:58;;;;;;;8.73;4.12;;;;;;;9.68;58.81;99803.50;1739312;80;22184;-69
2021/11/22 02:37:25;;;;;;;8.50;4.35;;;;;;;9.63;58.85;99800.44;1743274;80;21580;-67
2021/11/22 02:39:52;;;;;;;7.92;4.33;;;;;;;9.58;58.96;99813.98;1744956;80;21043;-67
2021/11/22 02:42:30;;;;;;;7.85;3.98;;;;;;;9.52;59.15;99807.11;1741435;81;21094;-67
2021/11/22 02:44:58;;;;;;;7.78;4.00;;;;;;;9.45;59.27;99806.31;1721054;81;21614;-66
2021/11/22 02:47:24;;;;;;;9.10;4.67;;;;;;;9.40;59.42;99811.12;1743493;81;21542;-68
2021/11/22 02:49:51;;;;;;;9.55;4.85;;;;;;;9.35;59.53;99818.55;1759972;79;21089;-67
2021/11/22 02:52:18;;;;;;;8.15;4.20;;;;;;;9.32;59.63;99821.92;1751987;80;21056;-67
2021/11/22 02:54:45;;;;;;;8.43;3.72;;;;;;;9.27;59.76;99817.87;1772441;79;21643;-67
2021/11/22 02:57:12;;;;;;;6.90;3.67;;;;;;;9.29;59.76;99817.74;1752934;80;20982;-66
2021/11/22 02:59:40;;;;;;;8.10;4.40;;;;;;;9.37;59.64;99822.36;1757672;80;21539;-66
2021/11/22 03:02:08;;;;;;;7.90;4.30;;;;;;;9.42;59.67;99822.80;1752681;80;21077;-66
2021/11/22 03:04:39;;;;;;;7.80;4.25;;;;;;;9.44;59.66;99823.02;1730499;80;21053;-66
2021/11/22 03:07:07;;;;;;;7.83;4.35;;;;;;;9.43;59.64;99825.77;1758923;80;21062;-67
2021/11/22 03:09:34;;;;;;;7.08;4.20;;;;;;;9.39;59.70;99830.45;1748650;80;21089;-67
2021/11/22 03:12:03;;;;;;;9.08;4.67;;;;;;;9.35;59.79;99827.73;1748553;80;21108;-67
2021/11/22 03:14:31;;;;;;;7.87;4.58;;;;;;;9.30;59.87;99838.63;1762232;79;21025;-67
2021/11/22 03:16:58;;;;;;;7.78;4.30;;;;;;;9.26;59.96;99833.74;1754514;79;21076;-66
2021/11/22 03:19:25;;;;;;;8.58;4.70;;;;;;;9.21;60.06;99835.92;1713179;81;21437;-68
2021/11/22 03:21:52;;;;;;;8.88;4.83;;;;;;;9.20;60.15;99846.09;1766495;79;21117;-67
2021/11/22 03:24:19;;;;;;;7.95;4.37;;;;;;;9.17;60.19;99843.71;1752526;79;21543;-67
2021/11/22 03:26:46;;;;;;;8.48;4.58;;;;;;;9.15;60.25;99845.64;1771508;78;21529;-67
2021/11/22 03:29:13;;;;;;;9.63;5.12;;;;;;;9.11;60.36;99850.28;1773825;79;21588;-67
2021/11/22 03:31:40;;;;;;;7.72;4.37;;;;;;;9.07;60.49;99847.08;1774099;80;21010;-67
2021/11/22 03:34:07;;;;;;;10.20;5.58;;;;;;;9.07;60.55;99851.50;1773125;79;21003;-67
2021/11/22 03:36:34;;;;;;;8.20;4.92;;;;;;;9.08;60.63;99850.56;1773171;78;21535;-67
2021/11/22 03:39:04;;;;;;;8.93;4.95;;;;;;;9.11;60.67;99858.16;1789913;78;21081;-67
2021/11/22 03:41:34;;;;;;;11.97;5.85;;;;;;;9.10;60.64;99861.27;1765770;80;21094;-67
2021/11/22 03:44:10;;;;;;;8.70;5.42;;;;;;;9.13;60.66;99867.22;1764463;79;21106;-67
2021/11/22 03:46:29;;;;;;;10.30;4.72;;;;;;;9.19;60.58;99870.66;1747234;80;21068;-67
2021/11/22 03:48:56;;;;;;;7.65;4.72;;;;;;;9.31;60.42;99880.14;1786361;78;21588;-67
2021/11/22 03:51:22;;;;;;;8.08;4.10;;;;;;;9.40;60.31;99876.77;1775513;78;21687;-67
2021/11/22 03:53:49;;;;;;;7.55;4.35;;;;;;;9.50;60.25;99887.34;1750001;79;21616;-68
2021/11/22 03:56:16;;;;;;;8.40;4.50;;;;;;;9.56;60.22;99885.98;1777685;79;21156;-68
2021/11/22 03:58:42;;;;;;;9.20;5.08;;;;;;;9.57;60.07;99894.23;1771859;78;21120;-66
2021/11/22 04:01:09;;;;;;;10.05;5.47;;;;;;;9.59;60.01;99888.36;1751158;80;21053;-68
2021/11/22 04:03:36;;;;;;;8.00;4.72;;;;;;;9.60;59.92;99895.26;1774453;79;21054;-66
2021/11/22 04:06:02;;;;;;;8.20;4.50;;;;;;;9.59;59.81;99894.44;1768427;79;21208;-66
2021/11/22 04:08:29;;;;;;;10.78;5.42;;;;;;;9.57;59.75;99902.11;1773161;79;21172;-66
2021/11/22 04:10:56;;;;;;;9.30;4.25;;;;;;;9.55;59.75;99908.80;1773085;78;21070;-69
2021/11/22 04:13:23;;;;;;;8.75;4.85;;;;;;;9.50;59.75;99907.03;1767886;78;21136;-66
2021/11/22 04:15:49;;;;;;;8.25;4.95;;;;;;;9.41;59.89;99913.03;1769345;79;21082;-62
2021/11/22 04:18:16;;;;;;;8.90;5.37;;;;;;;9.35;60.09;99910.45;1779512;79;21030;-62
2021/11/22 04:20:43;;;;;;;9.95;5.30;;;;;;;9.28;60.27;99914.55;1769095;79;21136;-63
2021/11/22 04:23:10;;;;;;;7.90;4.37;;;;;;;9.19;60.50;99909.55;1774548;79;21152;-62
2021/11/22 04:25:38;;;;;;;9.33;4.50;;;;;;;9.08;60.77;99917.00;1782342;78;21097;-62
2021/11/22 04:28:07;;;;;;;8.33;4.67;;;;;;;8.99;61.00;99921.66;1787777;78;21052;-63
2021/11/22 04:30:35;;;;;;;8.15;3.77;;;;;;;8.92;61.23;99919.19;1784722;78;21671;-63
2021/11/22 04:33:01;;;;;;;9.35;4.10;;;;;;;8.92;61.39;99928.38;1779062;78;21048;-62
2021/11/22 04:35:28;;;;;;;8.05;4.22;;;;;;;8.98;61.39;99930.97;1783831;78;21068;-64
2021/11/22 04:37:55;;;;;;;7.05;4.12;;;;;;;9.03;61.36;99934.91;1786161;78;21523;-64
2021/11/22 04:40:21;;;;;;;8.95;4.67;;;;;;;9.06;61.35;99933.35;1786137;78;21447;-63
2021/11/22 04:42:49;;;;;;;9.10;4.47;;;;;;;9.07;61.40;99937.63;1789095;78;21422;-64
2021/11/22 04:45:17;;;;;;;7.67;4.25;;;;;;;9.09;61.38;99940.98;1762673;78;21144;-64
2021/11/22 04:47:45;;;;;;;8.23;4.30;;;;;;;9.08;61.32;99945.05;1783497;78;21055;-63
2021/11/22 04:50:13;;;;;;;8.63;4.87;;;;;;;9.07;61.33;99951.23;1779914;78;21195;-62
2021/11/22 04:52:40;;;;;;;8.30;4.85;;;;;;;9.03;61.40;99953.77;1788828;78;21013;-64
2021/11/22 04:55:07;;;;;;;14.58;6.17;;;;;;;8.98;61.52;99963.31;1765339;78;21082;-66
2021/11/22 04:57:33;;;;;;;8.35;4.80;;;;;;;8.96;61.66;99965.69;1748465;80;21144;-67
2021/11/22 05:00:04;;;;;;;8.83;5.15;;;;;;;8.92;61.73;99970.36;1767941;79;21062;-68
2021/11/22 05:02:31;;;;;;;9.33;4.47;;;;;;;8.90;61.80;99978.83;1769176;80;21556;-68
2021/11/22 05:04:57;;;;;;;8.63;4.75;;;;;;;8.87;61.88;99981.70;1762523;80;21105;-66
2021/11/22 05:07:24;;;;;;;8.83;4.45;;;;;;;8.85;61.95;99984.92;1744927;80;21211;-66
2021/11/22 05:09:52;;;;;;;7.12;4.03;;;;;;;8.82;61.83;99987.30;1766983;79;21058;-66
2021/11/22 05:12:20;;;;;;;8.78;3.62;;;;;;;8.87;61.61;99991.70;1769402;79;21083;-65
2021/11/22 05:14:46;;;;;;;8.43;4.22;;;;;;;9.02;61.06;99998.84;1770044;79;21073;-67
2021/11/22 05:17:13;;;;;;;6.75;3.58;;;;;;;9.13;60.65;99993.20;1764178;79;21346;-68
2021/11/22 05:19:40;;;;;;;7.12;3.08;;;;;;;9.22;60.11;100001.67;1763834;79;21137;-66
2021/11/22 05:22:06;;;;;;;5.70;2.52;;;;;;;9.28;59.19;99999.88;1742430;79;21145;-66
2021/11/22 05:24:33;;;;;;;6.85;2.77;;;;;;;9.29;58.71;99998.41;1746718;80;21077;-65
2021/11/22 05:27:03;;;;;;;4.67;2.08;;;;;;;9.29;58.30;100006.77;1745612;79;21110;-66
2021/11/22 05:29:29;;;;;;;4.97;2.25;;;;;;;9.28;58.06;100014.31;1768317;79;21600;-67
2021/11/22 05:31:56;;;;;;;4.92;1.72;;;;;;;9.26;57.95;100023.63;1763425;79;21090;-65
2021/11/22 05:34:22;;;;;;;5.25;2.22;;;;;;;9.23;57.74;100025.17;1772704;80;21061;-65
2021/11/22 05:36:49;;;;;;;6.40;2.22;;;;;;;9.18;57.69;100029.96;1744234;80;21066;-66
2021/11/22 05:39:16;;;;;;;5.78;2.55;;;;;;;9.12;57.86;100035.69;1767760;79;21520;-66
2021/11/22 05:41:42;;;;;;;5.75;2.00;;;;;;;9.06;57.99;100035.71;1765552;80;21070;-68
2021/11/22 05:44:09;;;;;;;5.95;2.42;;;;;;;8.99;58.21;100039.75;1767691;80;21746;-66
2021/11/22 05:46:36;;;;;;;6.12;2.00;;;;;;;8.98;58.38;100042.50;1770302;79;21554;-69
2021/11/22 05:49:02;;;;;;;6.53;2.20;;;;;;;9.06;58.34;100041.41;1743254;79;21128;-70
2021/11/22 05:51:29;;;;;;;4.97;2.10;;;;;;;9.09;58.17;100052.53;1764396;79;21120;-72
2021/11/22 05:53:58;;;;;;;4.53;1.95;;;;;;;9.05;58.28;100055.52;1766369;79;21109;-67
2021/11/22 05:56:24;;;;;;;6.22;2.20;;;;;;;9.00;58.42;100055.87;1766893;79;21061;-66
2021/11/22 05:58:51;;;;;;;5.95;2.22;;;;;;;8.96;58.63;100061.47;1765107;79;21367;-68
2021/11/22 06:01:17;;;;;;;5.55;2.12;;;;;;;8.88;58.74;100062.91;1763152;79;21578;-71
2021/11/22 06:03:44;;;;;;;6.05;2.40;;;;;;;8.84;58.92;100069.38;1762842;80;21102;-66
2021/11/22 06:06:11;;;;;;;5.08;2.15;;;;;;;8.83;59.03;100077.36;1769444;79;21117;-65
2021/11/22 06:08:38;;;;;;;5.12;1.90;;;;;;;8.82;59.07;100084.37;1765476;79;21169;-67
2021/11/22 06:11:05;;;;;;;4.72;2.05;;;;;;;8.85;59.07;100088.56;1741681;79;21027;-66
2021/11/22 06:13:31;;;;;;;6.12;2.15;;;;;;;8.94;59.00;100095.70;1745852;79;21137;-68
2021/11/22 06:15:58;;;;;;;6.03;2.37;;;;;;;9.01;58.85;100095.60;1768682;79;21801;-67
2021/11/22 06:18:24;;;;;;;4.92;2.02;;;;;;;9.04;58.72;100095.34;1765845;79;21078;-65
2021/11/22 06:20:51;;;;;;;5.17;2.17;;;;;;;9.07;58.63;100098.22;1778450;78;21025;-65
2021/11/22 06:23:18;;;;;;;6.35;2.33;;;;;;;9.04;58.65;100096.66;1774358;78;21515;-67
2021/11/22 06:25:44;;;;;;;11.53;2.25;;;;;;;9.06;58.63;100103.95;1783839;78;21607;-69
2021/11/22 06:28:11;;;;;;;6.00;2.27;;;;;;;9.05;58.60;100104.89;1751221;78;22404;-67
2021/11/22 06:30:37;;;;;;;7.08;2.37;;;;;;;9.04;58.70;100103.21;1777034;78;21464;-66
2021/11/22 06:33:05;;;;;;;7.28;2.65;;;;;;;9.03;58.69;100105.50;1775380;78;21068;-67
2021/11/22 06:35:36;;;;;;;6.85;2.27;;;;;;;9.02;58.49;100116.11;1782304;78;20997;-67
2021/11/22 06:38:02;;;;;;;6.08;2.10;;;;;;;8.99;58.57;100119.80;1753664;78;21097;-69
2021/11/22 06:40:29;;;;;;;6.80;1.90;;;;;;;8.99;58.51;100123.73;1751420;80;21141;-66
2021/11/22 06:42:56;;;;;;;5.75;1.82;;;;;;;9.00;58.48;100126.73;1762277;78;21066;-67
2021/11/22 06:45:23;;;;;;;6.75;1.87;;;;;;;9.10;58.43;100126.37;1735722;80;21051;-67
2021/11/22 06:47:50;;;;;;;7.12;2.42;;;;;;;9.17;58.17;100125.89;1764702;79;21073;-67
2021/11/22 06:50:18;;;;;;;8.30;1.67;;;;;;;9.19;57.71;100136.63;1767701;79;21125;-71
2021/11/22 06:52:45;;;;;;;6.75;1.67;;;;;;;9.21;57.54;100139.13;1762197;79;21462;-67
2021/11/22 06:55:11;;;;;;;3.90;1.80;;;;;;;9.20;57.12;100137.48;1736604;79;21122;-68
2021/11/22 06:57:38;;;;;;;5.67;1.32;;;;;;;9.15;56.66;100139.63;1762138;79;21051;-68
2021/11/22 07:00:08;;;;;;;4.05;0.98;;;;;;;9.14;56.39;100143.20;1759592;79;21074;-64
2021/11/22 07:02:37;;;;;;;4.30;1.57;;;;;;;9.08;56.60;100138.78;1762096;79;21038;-69
2021/11/22 07:05:06;;;;;;;3.92;1.35;;;;;;;9.03;56.50;100139.62;1765903;79;21061;-73
2021/11/22 07:07:35;;;;;;;3.92;1.55;;;;;;;9.00;56.60;100138.53;1765111;78;21459;-79
2021/11/22 07:10:03;;;;;;;4.80;1.55;;;;;;;8.98;56.84;100145.70;1761923;79;21105;-65
2021/11/22 07:12:32;;;;;;;4.67;1.62;;;;;;;8.97;56.86;100147.12;1758668;79;21077;-69
2021/11/22 07:15:00;;;;;;;4.45;1.40;;;;;;;8.95;56.96;100150.36;1762768;79;22061;-67
2021/11/22 07:17:28;;;;;;;5.15;1.30;;;;;;;8.96;56.96;100154.17;1758202;79;21140;-72
2021/11/22 07:19:54;;;;;;;4.75;1.20;;;;;;;8.95;57.03;100155.12;1770558;78;21025;-69
2021/11/22 07:22:21;;;;;;;5.22;1.70;;;;;;;8.91;57.07;100160.25;1752689;80;21148;-67
2021/11/22 07:24:48;;;;;;;3.98;1.50;;;;;;;8.88;57.21;100161.80;1775029;78;21069;-70
2021/11/22 07:27:14;;;;;;;3.87;1.25;;;;;;;8.89;56.75;100167.39;1757384;78;20994;-69
2021/11/22 07:29:42;;;;;;;6.37;1.30;;;;;;;8.86;56.62;100169.78;1779860;78;21502;-74
2021/11/22 07:32:09;;;;;;;5.17;1.65;;;;;;;8.87;56.75;100173.23;1774550;78;21146;-68
2021/11/22 07:34:35;;;;;;;3.20;1.00;;;;;;;8.90;56.59;100179.08;1774987;78;21331;-72
2021/11/22 07:37:03;;;;;;;3.52;1.00;;;;;;;8.93;56.35;100189.83;1771254;78;21057;-73
2021/11/22 07:39:30;;;;;;;2.52;0.90;;;;;;;8.94;55.91;100186.23;1776267;78;21006;-69
2021/11/22 07:41:57;;;;;;;3.77;1.27;;;;;;;8.93;55.33;100184.58;1779367;78;21762;-71
2021/11/22 07:44:27;;;;;;;4.12;1.17;;;;;;;8.90;55.39;100200.07;1775162;78;21041;-70
2021/11/22 07:46:56;;;;;;;3.55;0.98;;;;;;;8.89;55.45;100206.75;1775779;78;21113;-72
2021/11/22 07:49:23;;;;;;;7.20;1.45;;;;;;;8.89;55.19;100206.29;1774128;78;22283;-67
2021/11/22 07:51:50;;;;;;;3.17;1.02;;;;;;;8.87;54.83;100210.80;1751116;79;21073;-69
2021/11/22 07:54:17;;;;;;;5.22;1.10;;;;;;;8.84;54.87;100208.88;1772869;78;21636;-70
2021/11/22 07:56:43;;;;;;;3.87;1.20;;;;;;;8.81;55.19;100213.91;1769235;78;21579;-70
2021/11/22 07:59:10;;;;;;;4.30;1.32;;;;;;;8.79;55.19;100210.53;1747543;80;21038;-71
2021/11/22 08:01:37;;;;;;;4.33;1.30;;;;;;;8.80;55.50;100219.27;1748545;78;21116;-69
2021/11/22 08:04:03;;;;;;;4.45;1.52;;;;;;;8.82;55.90;100216.04;1775942;78;21029;-69
2021/11/22 08:06:30;;;;;;;4.00;1.50;;;;;;;8.82;56.21;100219.48;1777279;78;21483;-67
2021/11/22 08:08:58;;;;;;;4.97;1.50;;;;;;;8.83;56.04;100221.66;1760460;79;21050;-71
2021/11/22 08:11:31;;;;;;;4.50;1.57;;;;;;;8.82;55.83;100225.22;1758762;79;21809;-71
2021/11/22 08:13:54;;;;;;;5.72;1.45;;;;;;;8.79;55.82;100224.97;1762367;79;21653;-71
2021/11/22 08:16:21;;;;;;;8.15;1.35;;;;;;;8.76;55.88;100226.53;1759956;79;21144;-68
2021/11/22 08:18:48;;;;;;;4.03;1.30;;;;;;;8.74;55.59;100229.72;1762334;79;21016;-70
2021/11/22 08:21:15;;;;;;;2.83;1.12;;;;;;;8.71;55.39;100233.42;1738200;79;21051;-72
2021/11/22 08:23:42;;;;;;;4.50;0.82;;;;;;;8.71;55.44;100244.41;1763169;79;21075;-71
2021/11/22 08:26:09;;;;;;;2.65;0.82;;;;;;;8.69;54.45;100247.14;1750154;79;21172;-70
2021/11/22 08:28:35;;;;;;;3.10;1.00;;;;;;;8.68;54.33;100246.77;1760573;78;21106;-71
2021/11/22 08:31:03;;;;;;;2.65;1.00;;;;;;;8.66;54.16;100252.61;1760214;78;21237;-70
2021/11/22 08:33:31;;;;;;;4.00;1.10;;;;;;;8.62;53.95;100258.19;1761765;79;21128;-68
2021/11/22 08:35:58;;;;;;;5.15;0.93;;;;;;;8.59;54.20;100264.51;1760395;79;21070;-71
2021/11/22 08:38:24;;;;;;;7.22;0.78;;;;;;;8.60;54.30;100266.65;1761845;79;21099;-70
2021/11/22 08:40:51;;;;;;;6.28;0.98;;;;;;;8.58;53.73;100258.06;1761118;79;21082;-70
2021/11/22 08:43:18;;;;;;;3.08;1.00;;;;;;;8.57;53.93;100257.69;1734305;79;21056;-68
2021/11/22 08:45:46;;;;;;;1.98;0.70;;;;;;;8.57;54.07;100276.05;1757321;79;21078;-65
2021/11/22 08:48:13;;;;;;;1.95;0.60;;;;;;;8.59;54.35;100277.63;1759456;79;21558;-68
2021/11/22 08:50:40;;;;;;;3.05;0.98;;;;;;;8.61;53.80;100277.48;1762580;79;21082;-65
2021/11/22 08:53:06;;;;;;;2.98;0.70;;;;;;;8.61;53.51;100280.96;1758381;79;21090;-67
2021/11/22 08:55:34;;;;;;;2.83;1.00;;;;;;;8.61;53.40;100273.55;1736709;79;21070;-66
2021/11/22 08:58:06;;;;;;;2.92;1.00;;;;;;;8.57;53.26;100278.19;1738303;79;21157;-67
2021/11/22 09:00:35;;;;;;;4.90;0.80;;;;;;;8.55;53.58;100281.41;1764946;79;21129;-67
2021/11/22 09:03:01;;;;;;;4.72;1.27;;;;;;;8.55;54.01;100284.03;1762981;79;21592;-68
2021/11/22 09:05:29;;;;;;;3.05;0.85;;;;;;;8.55;53.79;100285.34;1765697;79;21506;-67
2021/11/22 09:07:56;;;;;;;4.12;1.20;;;;;;;8.53;54.08;100285.93;1759262;79;21592;-69
2021/11/22 09:10:23;;;;;;;2.27;0.70;;;;;;;8.55;54.15;100290.09;1742193;79;21059;-68
2021/11/22 09:12:51;;;;;;;2.60;0.80;;;;;;;8.56;54.00;100293.58;1764019;79;21163;-62
2021/11/22 09:15:17;;;;;;;3.42;1.05;;;;;;;8.56;53.07;100294.89;1765999;79;21108;-69
2021/11/22 09:17:44;;;;;;;2.52;0.82;;;;;;;8.60;53.19;100294.19;1768334;78;21057;-67
2021/11/22 09:20:16;;;;;;;3.15;1.05;;;;;;;8.59;53.41;100302.54;1770983;79;21419;-71
2021/11/22 09:22:43;;;;;;;2.25;0.70;;;;;;;8.59;53.33;100306.92;1763537;78;21029;-64
2021/11/22 09:25:12;;;;;;;3.40;0.98;;;;;;;8.61;53.28;100308.50;1739499;79;21050;-65
2021/11/22 09:27:39;;;;;;;2.65;0.90;;;;;;;8.60;53.35;100316.00;1763493;79;21067;-66
2021/11/22 09:30:08;;;;;;;3.65;0.95;;;;;;;8.61;53.34;100308.95;1763336;79;21617;-66
2021/11/22 09:32:37;;;;;;;4.37;1.45;;;;;;;8.62;53.14;100306.70;1758624;79;21426;-64
2021/11/22 09:35:04;;;;;;;4.17;1.30;;;;;;;8.61;53.20;100302.40;1729168;79;21521;-64
2021/11/22 09:37:32;;;;;;;5.90;1.52;;;;;;;8.63;53.52;100307.08;1739044;79;21566;-66
2021/11/22 09:39:59;;;;;;;3.52;1.00;;;;;;;8.67;52.77;100305.41;1760280;79;21106;-67
2021/11/22 09:42:25;;;;;;;3.30;1.00;;;;;;;8.70;52.69;100301.26;1753007;79;21548;-67
2021/11/22 09:44:52;;;;;;;5.25;1.15;;;;;;;8.74;52.76;100302.72;1761856;79;21667;-72
2021/11/22 09:47:18;;;;;;;5.75;1.57;;;;;;;8.81;53.06;100300.48;1757806;79;21997;-65
2021/11/22 09:49:46;;;;;;;4.00;1.00;;;;;;;8.90;52.99;100310.28;1693417;79;21568;-68
2021/11/22 09:52:13;;;;;;;3.70;1.37;;;;;;;8.99;52.85;100307.44;1739728;79;21030;-71
2021/11/22 09:54:39;;;;;;;4.83;1.20;;;;;;;9.04;52.73;100307.94;1735763;79;21121;-70
2021/11/22 09:57:06;;;;;;;4.42;1.57;;;;;;;9.09;52.77;100311.08;1762051;79;21258;-67
2021/11/22 09:59:33;;;;;;;4.65;1.17;;;;;;;9.15;52.24;100312.88;1766107;79;21580;-69
2021/11/22 10:02:01;;;;;;;5.03;1.22;;;;;;;9.15;51.71;100316.81;1760723;79;21138;-65
2021/11/22 10:04:30;;;;;;;3.42;1.22;;;;;;;9.13;52.31;100319.55;1760215;79;21153;-66
2021/11/22 10:07:09;;;;;;;3.27;1.10;;;;;;;9.11;52.47;100310.94;1762458;79;21144;-71
2021/11/22 10:09:45;;;;;;;2.83;0.90;;;;;;;9.12;51.80;100310.00;1757648;79;21042;-70
2021/11/22 10:12:23;;;;;;;3.58;1.25;;;;;;;9.11;51.04;100314.42;1767946;78;21098;-70
2021/11/22 10:14:57;;;;;;;3.65;1.07;;;;;;;9.11;51.29;100316.19;1733847;80;21090;-67
2021/11/22 10:17:39;;;;;;;4.75;1.12;;;;;;;9.10;51.02;100317.98;1770319;79;21046;-69
2021/11/22 10:20:14;;;;;;;3.87;1.22;;;;;;;9.07;50.77;100315.58;1748173;79;22392;-66
2021/11/22 10:23:03;;;;;;;4.75;1.52;;;;;;;9.06;51.12;100312.62;1777037;78;21981;-68
2021/11/22 10:25:37;;;;;;;5.08;1.00;;;;;;;9.02;50.75;100309.02;1772258;79;21572;-64
2021/11/22 10:28:20;;;;;;;3.80;1.10;;;;;;;8.95;50.89;100315.20;1791225;78;20983;-69
2021/11/22 10:30:55;;;;;;;5.17;1.60;;;;;;;8.89;51.27;100316.50;1790494;78;21577;-64
2021/11/22 10:33:25;;;;;;;4.05;1.25;;;;;;;8.83;51.67;100306.94;1790834;78;21119;-67
2021/11/22 10:35:56;;;;;;;9.85;1.40;;;;;;;8.79;51.64;100312.02;1765256;80;21078;-64
2021/11/22 10:38:26;;;;;;;3.25;1.10;;;;;;;8.75;51.67;100310.11;1782762;78;20982;-65
2021/11/22 10:40:59;;;;;;;2.05;0.80;;;;;;;8.70;51.32;100311.75;1788095;78;20984;-66
2021/11/22 10:43:49;;;;;;;4.28;1.30;;;;;;;8.64;51.29;100310.91;1792797;78;21053;-67
2021/11/22 10:46:12;;;;;;;3.67;1.07;;;;;;;8.62;51.85;100309.33;1795514;78;21065;-65
2021/11/22 10:48:38;;;;;;;3.80;1.45;;;;;;;8.64;52.24;100308.73;1796222;78;21573;-66
2021/11/22 10:51:24;;;;;;;3.30;1.40;;;;;;;8.64;51.95;100312.22;1762065;79;21088;-67
2021/11/22 10:53:55;;;;;;;2.85;0.80;;;;;;;8.60;52.01;100313.38;1790651;79;21049;-66
2021/11/22 10:56:25;;;;;;;3.20;1.17;;;;;;;8.56;51.78;100314.56;1782758;78;21064;-68
2021/11/22 10:58:59;;;;;;;4.42;0.60;;;;;;;8.52;51.05;100317.88;1764149;79;21094;-63
2021/11/22 11:01:32;;;;;;;2.37;0.70;;;;;;;8.51;50.81;100319.30;1767264;79;21112;-62
2021/11/22 11:04:10;;;;;;;2.25;0.57;;;;;;;8.50;50.27;100315.00;1789019;78;21065;-65
2021/11/22 11:06:44;;;;;;;2.47;0.60;;;;;;;8.52;49.71;100326.20;1782224;78;21144;-68
2021/11/22 11:09:27;;;;;;;2.08;0.60;;;;;;;8.54;49.51;100322.54;1786353;79;21081;-68
2021/11/22 11:12:10;;;;;;;1.35;0.57;;;;;;;8.59;49.40;100327.91;1766987;79;21372;-70
2021/11/22 11:14:43;;;;;;;2.02;0.60;;;;;;;8.64;49.03;100318.78;1781962;79;22841;-68
2021/11/22 11:17:26;;;;;;;2.10;0.80;;;;;;;8.70;48.80;100318.30;1777824;78;22334;-70
2021/11/22 11:19:55;;;;;;;3.17;0.88;;;;;;;8.76;48.62;100318.35;1786557;78;21080;-69
2021/11/22 11:22:26;;;;;;;2.42;0.80;;;;;;;8.85;48.76;100324.70;1773443;79;21082;-77
2021/11/22 11:24:53;;;;;;;2.65;0.90;;;;;;;8.95;48.29;100321.76;1762316;79;21143;-68
2021/11/22 11:27:20;;;;;;;2.02;0.75;;;;;;;9.02;47.95;100328.22;1768968;78;21516;-67
2021/11/22 11:29:47;;;;;;;2.45;0.78;;;;;;;9.08;47.87;100326.94;1760078;79;21078;-69
2021/11/22 11:32:13;;;;;;;3.92;1.12;;;;;;;9.11;47.92;100318.81;1760304;80;21078;-65
2021/11/22 11:34:47;;;;;;;3.72;1.30;;;;;;;9.19;47.73;100325.64;1761871;79;21061;-71
2021/11/22 11:37:38;;;;;;;3.17;1.20;;;;;;;9.22;47.93;100326.72;1768123;79;21007;-66
2021/11/22 11:43:18;;;;;;;5.67;1.22;;;;;;;9.31;47.22;100325.19;1788894;78;22693;-64
2021/11/22 11:46:01;;;;;;;2.75;0.90;;;;;;;9.19;47.69;100339.25;1730339;80;21747;-65